Time;durP1;ratioP1;P1;durP2;ratioP2;P2;SDS_P1;SDS_P2;PMS_P1;PMS_P2;Temp;Humidity;BMP_temperature;BMP_pressure;BME280_temperature;BME280_humidity;BME280_pressure;Samples;Min_cycle;Max_cycle;Signal;HPM_P1;HPM_P2
2022/12/21 00:01:22;;;;;;;46.60;32.00;;;;;;;-0.01;57.71;95885.91;5040980;28;20264;-64
2022/12/21 00:04:00;;;;;;;39.53;29.67;;;;;;;-0.05;58.28;95893.88;5044141;28;20225;-64
2022/12/21 00:06:28;;;;;;;40.10;28.87;;;;;;;-0.26;58.58;95886.13;5040037;28;20226;-64
2022/12/21 00:08:55;;;;;;;40.00;29.87;;;;;;;-0.13;58.08;95885.59;5043075;28;20257;-64
2022/12/21 00:11:23;;;;;;;42.03;29.13;;;;;;;-0.16;58.58;95885.72;5037132;28;20198;-64
2022/12/21 00:13:49;;;;;;;40.00;30.37;;;;;;;-0.14;58.26;95889.06;5047264;28;20255;-64
2022/12/21 00:16:17;;;;;;;39.70;29.67;;;;;;;-0.08;58.22;95896.56;5048288;28;20229;-64
2022/12/21 00:18:43;;;;;;;40.43;30.30;;;;;;;-0.06;57.98;95887.00;5038298;28;20229;-64
2022/12/21 00:21:20;;;;;;;41.30;30.23;;;;;;;-0.06;58.55;95887.00;5038082;28;20265;-64
2022/12/21 00:23:47;;;;;;;41.83;29.70;;;;;;;-0.06;58.00;95885.25;5033486;28;20232;-64
2022/12/21 00:26:15;;;;;;;41.60;29.73;;;;;;;-0.09;58.50;95887.97;5047292;28;20287;-64
2022/12/21 00:28:41;;;;;;;39.23;29.97;;;;;;;-0.18;58.42;95884.97;5023064;28;20297;-64
2022/12/21 00:31:12;;;;;;;44.97;30.47;;;;;;;-0.18;58.61;95884.97;5026021;28;20297;-64
2022/12/21 00:33:39;;;;;;;39.27;29.30;;;;;;;-0.41;59.26;95880.75;5029639;28;20233;-64
2022/12/21 00:36:06;;;;;;;43.57;30.63;;;;;;;-0.33;59.25;95879.50;5013313;28;20223;-64
2022/12/21 00:38:33;;;;;;;37.60;28.93;;;;;;;-0.17;58.96;95877.13;5026822;28;20186;-64
2022/12/21 00:41:04;;;;;;;44.80;30.03;;;;;;;-0.36;59.54;95878.81;5053750;28;20282;-64
2022/12/21 00:43:31;;;;;;;39.90;29.00;;;;;;;-0.32;59.54;95870.00;5046548;28;20279;-65
2022/12/21 00:45:57;;;;;;;38.20;30.10;;;;;;;-0.16;58.97;95878.81;5049303;28;20217;-65
2022/12/21 00:48:27;;;;;;;39.63;29.17;;;;;;;-0.21;59.05;95875.59;5041785;28;20226;-65
2022/12/21 00:50:53;;;;;;;37.73;27.83;;;;;;;-0.10;58.83;95870.78;5048296;28;20253;-65
2022/12/21 00:53:18;;;;;;;41.93;28.33;;;;;;;-0.14;58.93;95861.47;5049074;28;20201;-65
2022/12/21 00:55:58;;;;;;;39.93;29.13;;;;;;;-0.07;58.37;95847.38;5042185;28;20182;-65
2022/12/21 00:58:25;;;;;;;44.07;29.20;;;;;;;-0.12;58.44;95839.00;5037382;28;20225;-65
2022/12/21 01:00:54;;;;;;;43.77;29.80;;;;;;;-0.14;58.60;95848.56;5036101;28;20225;-65
2022/12/21 01:03:20;;;;;;;43.63;30.83;;;;;;;-0.17;58.81;95846.09;5048667;28;20229;-64
2022/12/21 01:05:47;;;;;;;46.37;29.97;;;;;;;-0.24;59.12;95840.38;5042609;28;20225;-65
2022/12/21 01:08:14;;;;;;;40.87;28.73;;;;;;;-0.25;59.11;95832.66;5042956;28;20186;-66
2022/12/21 01:10:39;;;;;;;41.67;28.67;;;;;;;-0.32;59.23;95829.53;5035748;28;20218;-65
2022/12/21 01:13:04;;;;;;;42.03;29.17;;;;;;;-0.33;59.40;95838.16;5044096;28;20236;-65
2022/12/21 01:15:30;;;;;;;39.90;28.50;;;;;;;-0.46;59.94;95844.75;5046084;28;20229;-64
2022/12/21 01:17:55;;;;;;;43.50;28.93;;;;;;;-0.39;59.49;95837.59;5041824;28;20233;-65
2022/12/21 01:20:21;;;;;;;39.33;28.43;;;;;;;-0.40;59.84;95844.53;5044758;28;20206;-65
2022/12/21 01:22:47;;;;;;;42.13;28.47;;;;;;;-0.46;59.95;95837.00;5041917;28;20182;-64
2022/12/21 01:25:12;;;;;;;37.33;27.33;;;;;;;-0.49;60.04;95837.16;5045295;28;20358;-64
2022/12/21 01:27:37;;;;;;;39.60;27.27;;;;;;;-0.55;60.32;95840.81;5037896;28;20541;-64
2022/12/21 01:30:03;;;;;;;40.10;27.37;;;;;;;-0.55;60.13;95845.16;5042332;28;20292;-64
2022/12/21 01:32:29;;;;;;;36.97;26.77;;;;;;;-0.61;60.44;95833.34;5048452;28;20205;-64
2022/12/21 01:34:56;;;;;;;40.43;26.93;;;;;;;-0.47;60.22;95838.75;5043724;28;20264;-63
2022/12/21 01:37:22;;;;;;;40.63;25.67;;;;;;;-0.39;59.82;95835.03;5048631;28;20256;-64
2022/12/21 01:39:48;;;;;;;35.23;26.60;;;;;;;-0.37;59.88;95841.81;5048873;28;20233;-64
2022/12/21 01:42:13;;;;;;;44.60;27.17;;;;;;;-0.40;59.83;95831.59;5044837;28;20225;-64
2022/12/21 01:45:00;;;;;;;38.53;27.17;;;;;;;-0.39;59.61;95822.09;5040608;28;20221;-64
2022/12/21 01:47:40;;;;;;;40.13;27.73;;;;;;;-0.34;59.54;95818.41;5040966;28;20204;-64
2022/12/21 01:50:32;;;;;;;41.73;27.27;;;;;;;-0.41;59.42;95824.75;5047235;28;20181;-64
2022/12/21 01:53:01;;;;;;;40.73;27.13;;;;;;;-0.56;59.86;95815.91;5023149;28;20291;-64
2022/12/21 01:55:28;;;;;;;42.73;27.80;;;;;;;-0.49;59.97;95813.88;5035045;28;20249;-64
2022/12/21 01:57:54;;;;;;;44.57;27.67;;;;;;;-0.65;60.17;95799.94;5007152;28;20364;-64
2022/12/21 02:00:19;;;;;;;38.57;27.33;;;;;;;-0.74;60.67;95801.19;5024000;28;20321;-64
2022/12/21 02:02:50;;;;;;;42.17;27.93;;;;;;;-0.84;60.99;95799.88;5007191;28;20225;-64
2022/12/21 02:05:26;;;;;;;36.13;26.57;;;;;;;-0.84;60.95;95799.88;5034170;28;20324;-64
2022/12/21 02:07:53;;;;;;;36.77;27.53;;;;;;;-0.86;61.11;95805.09;5033250;28;20225;-64
2022/12/21 02:10:18;;;;;;;36.97;27.13;;;;;;;-0.87;61.43;95800.00;5043877;28;20221;-64
2022/12/21 02:12:44;;;;;;;39.57;27.67;;;;;;;-0.78;60.88;95792.72;5029485;28;20229;-64
2022/12/21 02:15:10;;;;;;;36.83;26.97;;;;;;;-0.83;61.16;95791.22;5034565;28;20229;-64
2022/12/21 02:18:01;;;;;;;41.40;26.90;;;;;;;-0.75;61.16;95800.34;5029269;28;20256;-64
2022/12/21 02:20:39;;;;;;;35.60;25.63;;;;;;;-0.70;61.01;95797.56;5038901;28;20217;-64
2022/12/21 02:23:28;;;;;;;36.70;26.83;;;;;;;-0.69;61.13;95794.09;5040947;28;20205;-66
2022/12/21 02:26:22;;;;;;;36.30;27.07;;;;;;;-0.78;61.17;95784.13;5026736;28;20218;-66
2022/12/21 02:29:18;;;;;;;36.93;26.23;;;;;;;-0.70;60.78;95787.22;5006960;28;20366;-66
2022/12/21 02:32:01;;;;;;;39.57;26.50;;;;;;;-0.67;60.57;95785.38;4999257;28;20245;-66
2022/12/21 02:34:34;;;;;;;38.87;26.63;;;;;;;-0.62;60.51;95786.91;5000848;28;20230;-66
2022/12/21 02:37:18;;;;;;;39.10;25.70;;;;;;;-0.70;60.52;95793.22;4988697;28;20228;-66
2022/12/21 02:40:04;;;;;;;40.27;26.53;;;;;;;-0.67;60.29;95784.50;5002622;28;20226;-66
2022/12/21 02:45:53;;;;;;;38.43;26.23;;;;;;;-0.67;60.34;95790.53;4990526;28;20267;-66
2022/12/21 02:48:24;;;;;;;37.47;26.40;;;;;;;-0.85;61.06;95790.47;4988641;28;20238;-66
2022/12/21 02:50:55;;;;;;;36.07;25.87;;;;;;;-0.79;61.14;95792.78;4999795;28;20235;-66
2022/12/21 02:53:28;;;;;;;33.30;25.57;;;;;;;-0.75;60.81;95790.03;4979873;28;20192;-66
2022/12/21 02:55:53;;;;;;;35.20;25.10;;;;;;;-0.78;60.53;95786.72;4984111;28;20278;-65
2022/12/21 02:58:21;;;;;;;37.10;26.30;;;;;;;-0.78;60.74;95784.13;4999903;28;20309;-66
2022/12/21 03:00:59;;;;;;;40.67;25.43;;;;;;;-0.80;60.79;95783.34;4990763;28;20234;-66
2022/12/21 03:03:48;;;;;;;39.07;24.93;;;;;;;-0.81;60.57;95776.50;4986714;28;20228;-66
2022/12/21 03:06:40;;;;;;;34.53;26.10;;;;;;;-0.77;60.37;95778.91;4987297;28;20235;-68
2022/12/21 03:09:15;;;;;;;34.13;24.53;;;;;;;-0.75;60.36;95773.66;4999444;28;20223;-67
2022/12/21 03:12:00;;;;;;;37.80;25.90;;;;;;;-0.78;60.23;95774.63;5005178;28;20227;-67
2022/12/21 03:14:43;;;;;;;36.67;26.77;;;;;;;-0.77;60.21;95770.31;4982532;28;20187;-66
2022/12/21 03:17:17;;;;;;;40.87;26.83;;;;;;;-0.75;60.53;95768.50;4980416;28;20278;-68
2022/12/21 03:19:55;;;;;;;33.80;24.23;;;;;;;-0.84;60.75;95774.06;4982546;28;20250;-68
2022/12/21 03:22:48;;;;;;;34.43;25.17;;;;;;;-0.90;60.98;95767.41;4991438;28;20224;-68
2022/12/21 03:25:31;;;;;;;33.90;24.00;;;;;;;-0.99;61.36;95760.91;4982476;28;20306;-68
2022/12/21 03:28:03;;;;;;;34.30;24.77;;;;;;;-0.98;61.47;95754.81;4992923;28;20265;-68
2022/12/21 03:30:32;;;;;;;33.10;25.17;;;;;;;-0.99;61.44;95753.16;5025920;28;20222;-68
2022/12/21 03:33:00;;;;;;;32.43;24.60;;;;;;;-1.10;61.68;95742.41;5017661;28;20311;-67
2022/12/21 03:35:33;;;;;;;33.17;24.53;;;;;;;-0.97;61.77;95742.75;5019987;28;20218;-66
2022/12/21 03:38:02;;;;;;;32.83;24.77;;;;;;;-0.94;61.40;95738.28;5025551;28;20198;-67
2022/12/21 03:40:33;;;;;;;31.43;23.70;;;;;;;-0.92;61.44;95735.66;5037289;28;20230;-67
2022/12/21 03:43:13;;;;;;;35.13;24.13;;;;;;;-0.85;60.90;95736.25;5036347;28;20233;-67
2022/12/21 03:45:48;;;;;;;35.73;24.13;;;;;;;-0.91;61.14;95729.56;5031906;28;20226;-67
2022/12/21 03:48:18;;;;;;;34.37;24.43;;;;;;;-0.94;61.33;95727.97;5016071;28;20237;-67
2022/12/21 03:50:47;;;;;;;32.67;25.00;;;;;;;-1.06;61.62;95727.66;5017347;28;20272;-67
2022/12/21 03:53:43;;;;;;;32.63;23.73;;;;;;;-1.02;61.45;95724.88;5019323;28;20217;-67
2022/12/21 03:56:19;;;;;;;33.37;24.17;;;;;;;-1.18;62.00;95718.66;5050997;28;20301;-67
2022/12/21 03:58:44;;;;;;;33.60;22.97;;;;;;;-1.22;62.15;95717.13;5041030;28;20217;-67
2022/12/21 04:01:31;;;;;;;29.87;22.77;;;;;;;-1.13;61.86;95715.00;5030000;28;20228;-67
2022/12/21 04:04:04;;;;;;;30.63;22.90;;;;;;;-1.24;61.98;95709.44;5041093;28;20221;-67
2022/12/21 04:06:33;;;;;;;31.80;24.00;;;;;;;-1.14;61.59;95715.91;5037985;28;20248;-67
2022/12/21 04:08:59;;;;;;;32.03;22.10;;;;;;;-1.20;61.46;95707.59;5038440;28;20237;-67
2022/12/21 04:14:15;;;;;;;31.60;21.30;;;;;;;-1.17;61.50;95710.88;5036444;28;20208;-67
2022/12/21 04:16:41;;;;;;;25.27;19.53;;;;;;;-1.08;61.37;95707.06;5038161;28;20226;-67
2022/12/21 04:21:50;;;;;;;29.47;22.37;;;;;;;-1.17;61.83;95715.19;5032324;28;20284;-67
2022/12/21 04:29:44;;;;;;;32.80;22.23;;;;;;;-1.05;61.41;95704.34;5033239;28;20232;-67
2022/12/21 04:32:10;;;;;;;30.60;21.07;;;;;;;-1.05;61.20;95698.34;5036857;28;20194;-67
2022/12/21 04:34:35;;;;;;;31.60;22.40;;;;;;;-1.09;61.06;95699.41;5041673;28;20214;-67
2022/12/21 04:39:45;;;;;;;29.17;20.67;;;;;;;-1.09;61.26;95694.25;5038911;28;20227;-67
2022/12/21 04:42:10;;;;;;;23.67;17.07;;;;;;;-1.18;60.87;95693.69;5046180;28;20229;-67
2022/12/21 04:44:35;;;;;;;27.90;17.63;;;;;;;-1.13;60.61;95688.34;5047235;28;20213;-67
2022/12/21 04:47:01;;;;;;;22.90;17.83;;;;;;;-1.10;60.44;95695.97;5042125;28;20270;-67
2022/12/21 04:49:26;;;;;;;21.27;15.87;;;;;;;-1.16;60.20;95694.47;5042658;28;20225;-66
2022/12/21 04:51:52;;;;;;;18.97;14.13;;;;;;;-1.10;59.87;95685.63;5045085;28;20225;-67
2022/12/21 04:54:18;;;;;;;16.63;12.17;;;;;;;-1.01;59.38;95687.84;5040055;28;20218;-66
2022/12/21 04:56:44;;;;;;;16.97;13.03;;;;;;;-1.06;59.22;95681.19;5037011;28;20222;-67
2022/12/21 04:59:09;;;;;;;17.23;13.00;;;;;;;-1.01;59.04;95685.25;5048982;28;20193;-66
2022/12/21 05:01:35;;;;;;;19.50;13.53;;;;;;;-1.05;58.87;95686.28;5045554;28;20272;-67
2022/12/21 05:04:00;;;;;;;18.03;12.43;;;;;;;-1.04;59.23;95693.13;5043810;28;20224;-67
2022/12/21 05:06:25;;;;;;;17.90;12.03;;;;;;;-1.03;59.48;95701.72;5051247;28;20225;-67
2022/12/21 05:08:56;;;;;;;15.80;11.70;;;;;;;-1.09;59.93;95681.34;5037441;28;20227;-66
2022/12/21 05:11:23;;;;;;;17.67;13.40;;;;;;;-1.08;59.47;95694.16;5040545;28;20197;-67
2022/12/21 05:13:49;;;;;;;22.90;13.33;;;;;;;-1.13;59.70;95690.94;5049841;28;20276;-67
2022/12/21 05:16:22;;;;;;;19.37;12.90;;;;;;;-1.12;59.99;95697.78;5041498;28;20226;-67
2022/12/21 05:18:48;;;;;;;19.80;13.60;;;;;;;-1.24;60.09;95691.38;5036418;28;20221;-67
2022/12/21 05:21:14;;;;;;;19.77;13.70;;;;;;;-1.19;60.30;95683.47;5040575;28;20243;-66
2022/12/21 05:23:40;;;;;;;23.83;16.77;;;;;;;-1.11;60.32;95692.53;5046327;28;20233;-67
2022/12/21 05:26:07;;;;;;;23.67;16.00;;;;;;;-1.13;60.58;95683.19;5045138;28;20190;-67
2022/12/21 05:28:33;;;;;;;21.87;13.50;;;;;;;-1.17;60.77;95695.41;5041456;28;20245;-66
2022/12/21 05:30:58;;;;;;;25.43;14.00;;;;;;;-1.18;60.59;95690.28;5042532;28;20343;-67
2022/12/21 05:33:24;;;;;;;21.17;13.80;;;;;;;-1.22;60.79;95688.75;5041010;28;20221;-67
2022/12/21 05:35:49;;;;;;;22.50;14.57;;;;;;;-1.22;60.98;95694.75;5039895;28;20358;-67
2022/12/21 05:38:15;;;;;;;32.37;17.03;;;;;;;-1.14;60.74;95684.09;5046957;28;20217;-67
2022/12/21 05:40:49;;;;;;;28.37;15.87;;;;;;;-1.09;60.69;95687.34;5030300;28;20236;-67
2022/12/21 05:43:15;;;;;;;26.53;15.97;;;;;;;-1.06;60.62;95683.78;5046210;28;20222;-67
2022/12/21 05:45:41;;;;;;;19.43;15.57;;;;;;;-1.06;60.82;95682.03;5043358;28;20232;-67
2022/12/21 05:48:06;;;;;;;24.97;15.70;;;;;;;-1.27;61.20;95685.53;5049312;28;20221;-68
2022/12/21 05:50:32;;;;;;;22.37;14.40;;;;;;;-1.21;61.65;95690.41;5041602;28;20208;-67
2022/12/21 05:52:57;;;;;;;23.57;14.43;;;;;;;-1.18;61.22;95685.94;5039509;28;20201;-68
2022/12/21 05:55:23;;;;;;;18.03;13.30;;;;;;;-1.11;61.42;95689.97;5047907;28;20228;-67
2022/12/21 05:57:48;;;;;;;17.93;13.50;;;;;;;-1.08;61.41;95689.00;5046608;28;20214;-67
2022/12/21 06:00:14;;;;;;;18.10;12.07;;;;;;;-1.11;61.13;95678.81;5049154;28;20240;-67
2022/12/21 06:02:40;;;;;;;20.77;12.97;;;;;;;-1.09;61.22;95683.91;5030301;28;20253;-68
2022/12/21 06:05:06;;;;;;;16.13;12.07;;;;;;;-1.02;60.80;95687.91;5039385;28;20178;-67
2022/12/21 06:07:32;;;;;;;18.17;12.30;;;;;;;-0.99;60.26;95688.63;5048148;28;20226;-67
2022/12/21 06:09:57;;;;;;;17.53;12.20;;;;;;;-1.09;60.56;95682.16;5035188;28;20218;-67
2022/12/21 06:12:23;;;;;;;20.70;13.17;;;;;;;-1.05;60.42;95686.28;5048958;28;20245;-67
2022/12/21 06:14:48;;;;;;;24.50;14.07;;;;;;;-1.11;60.69;95678.81;5057121;28;20236;-67
2022/12/21 06:17:14;;;;;;;22.37;15.10;;;;;;;-1.01;60.25;95685.25;5043569;28;20281;-66
2022/12/21 06:19:39;;;;;;;25.63;15.57;;;;;;;-1.02;60.01;95680.97;5024506;28;20222;-68
2022/12/21 06:22:05;;;;;;;22.07;16.53;;;;;;;-0.97;59.98;95678.22;5040324;28;20226;-67
2022/12/21 06:24:30;;;;;;;23.80;16.90;;;;;;;-0.95;60.04;95669.50;5033920;28;20248;-67
2022/12/21 06:26:55;;;;;;;26.50;16.63;;;;;;;-0.98;60.14;95672.22;5044094;28;20234;-67
2022/12/21 06:29:21;;;;;;;21.07;15.00;;;;;;;-0.97;60.15;95671.31;5039766;28;20230;-67
2022/12/21 06:31:46;;;;;;;24.73;15.73;;;;;;;-0.96;59.99;95661.84;5039754;28;20174;-67
2022/12/21 06:34:13;;;;;;;19.57;15.07;;;;;;;-0.90;60.14;95666.72;5027524;28;20234;-67
2022/12/21 06:36:38;;;;;;;22.60;15.83;;;;;;;-0.87;59.95;95664.00;5037164;28;20229;-67
2022/12/21 06:39:04;;;;;;;21.57;15.10;;;;;;;-0.74;59.54;95672.91;5044063;28;20229;-66
2022/12/21 06:41:29;;;;;;;21.93;15.97;;;;;;;-0.76;59.32;95672.13;5048895;28;20202;-67
2022/12/21 06:43:55;;;;;;;21.47;15.30;;;;;;;-0.71;58.98;95669.34;5050921;28;20254;-66
2022/12/21 06:46:20;;;;;;;22.90;15.53;;;;;;;-0.68;58.70;95662.28;5021188;28;20226;-67
2022/12/21 06:48:47;;;;;;;23.30;15.83;;;;;;;-0.58;58.35;95673.06;5028673;28;20218;-66
2022/12/21 06:51:15;;;;;;;21.37;14.70;;;;;;;-0.54;58.07;95664.25;5024386;28;20233;-67
2022/12/21 06:53:43;;;;;;;26.73;15.23;;;;;;;-0.44;58.16;95677.59;5025519;28;20236;-67
2022/12/21 06:56:14;;;;;;;26.03;16.80;;;;;;;-0.35;57.91;95678.94;5028097;28;20218;-67
2022/12/21 06:58:40;;;;;;;19.30;14.93;;;;;;;-0.31;57.77;95688.22;5038218;28;20229;-67
2022/12/21 07:01:11;;;;;;;18.47;13.03;;;;;;;-0.19;57.63;95687.66;5047179;28;20221;-67
2022/12/21 07:03:38;;;;;;;21.13;13.17;;;;;;;-0.32;58.14;95681.38;5043288;28;20320;-66
2022/12/21 07:06:05;;;;;;;21.20;14.13;;;;;;;-0.26;58.12;95684.53;5033122;28;20227;-66
2022/12/21 07:08:30;;;;;;;19.70;13.67;;;;;;;-0.04;57.32;95694.72;5032091;28;20329;-66
2022/12/21 07:11:02;;;;;;;18.73;12.23;;;;;;;0.04;56.88;95690.94;5024741;28;20273;-67
2022/12/21 07:13:28;;;;;;;16.27;12.00;;;;;;;0.09;56.55;95699.31;5021220;28;20226;-67
2022/12/21 07:15:55;;;;;;;17.73;13.50;;;;;;;0.20;56.54;95699.66;5057464;28;20222;-67
2022/12/21 07:18:20;;;;;;;17.93;13.47;;;;;;;0.24;56.51;95702.91;5035470;28;20230;-67
2022/12/21 07:20:46;;;;;;;17.43;13.83;;;;;;;0.16;56.40;95700.69;5034809;28;20233;-66
2022/12/21 07:23:12;;;;;;;16.90;14.03;;;;;;;0.16;56.87;95706.72;5032147;28;20193;-66
2022/12/21 07:25:38;;;;;;;15.47;12.67;;;;;;;0.20;56.42;95702.25;5050325;28;20221;-67
2022/12/21 07:28:03;;;;;;;17.10;13.03;;;;;;;0.18;56.75;95715.22;5048910;28;20368;-67
2022/12/21 07:30:29;;;;;;;17.47;12.57;;;;;;;0.25;56.94;95702.88;5036667;28;20221;-67
2022/12/21 07:32:54;;;;;;;16.50;12.07;;;;;;;0.32;56.83;95700.81;5047049;28;20221;-66
2022/12/21 07:35:24;;;;;;;17.50;12.10;;;;;;;0.36;56.75;95698.00;5050176;28;20231;-66
2022/12/21 07:37:50;;;;;;;13.83;11.13;;;;;;;0.35;56.50;95690.34;5042254;28;20241;-66
2022/12/21 07:40:17;;;;;;;18.10;10.87;;;;;;;0.20;56.89;95684.13;5035849;28;20225;-66
2022/12/21 07:42:46;;;;;;;15.53;11.27;;;;;;;0.26;56.87;95681.25;5041069;28;20221;-67
2022/12/21 07:45:12;;;;;;;14.77;11.60;;;;;;;0.38;56.88;95685.00;5039798;28;20217;-67
2022/12/21 07:47:38;;;;;;;16.03;10.67;;;;;;;0.34;56.48;95670.53;5041673;28;20197;-66
2022/12/21 07:50:05;;;;;;;15.07;11.07;;;;;;;0.37;56.32;95667.81;5040802;28;20175;-67
2022/12/21 07:52:31;;;;;;;16.03;10.97;;;;;;;0.46;56.52;95674.31;5044486;28;20244;-67
2022/12/21 07:54:57;;;;;;;13.47;10.27;;;;;;;0.53;56.32;95667.91;5044007;28;20226;-67
2022/12/21 07:57:23;;;;;;;14.83;10.23;;;;;;;0.57;56.17;95670.25;5045176;28;20242;-67
2022/12/21 07:59:48;;;;;;;12.33;10.83;;;;;;;0.69;55.98;95676.56;5045405;28;20295;-66
2022/12/21 08:02:13;;;;;;;14.67;11.80;;;;;;;0.80;55.22;95674.31;5048060;28;20276;-67
2022/12/21 08:04:39;;;;;;;14.00;11.43;;;;;;;0.83;55.28;95679.34;5050053;28;20259;-66
2022/12/21 08:07:05;;;;;;;15.23;11.83;;;;;;;0.88;55.37;95674.78;5039540;28;20228;-67
2022/12/21 08:09:32;;;;;;;14.77;11.07;;;;;;;0.95;55.26;95680.47;5041723;28;20225;-67
2022/12/21 08:11:57;;;;;;;14.57;11.17;;;;;;;1.04;54.92;95669.66;5043379;28;20230;-68
2022/12/21 08:14:23;;;;;;;16.07;11.70;;;;;;;0.96;55.46;95670.94;5040392;28;20268;-66
2022/12/21 08:16:48;;;;;;;18.93;12.10;;;;;;;1.06;55.37;95675.56;5049563;28;20239;-67
2022/12/21 08:19:14;;;;;;;14.53;11.90;;;;;;;0.79;55.58;95674.38;5042703;28;20222;-67
2022/12/21 08:21:39;;;;;;;14.80;11.10;;;;;;;0.77;55.81;95669.25;5047385;28;20264;-67
2022/12/21 08:24:05;;;;;;;15.73;11.67;;;;;;;0.76;55.93;95659.00;5046767;28;20221;-66
2022/12/21 08:26:30;;;;;;;16.07;12.23;;;;;;;0.95;55.40;95648.56;5052301;28;20253;-66
2022/12/21 08:28:57;;;;;;;15.20;12.23;;;;;;;1.15;55.60;95652.69;5038215;28;20230;-67
2022/12/21 08:31:22;;;;;;;19.27;13.10;;;;;;;0.97;55.73;95652.75;5047243;28;20217;-66
2022/12/21 08:33:48;;;;;;;16.33;12.40;;;;;;;1.08;55.64;95647.84;5045430;28;20316;-66
2022/12/21 08:36:21;;;;;;;24.83;14.60;;;;;;;1.10;55.32;95634.84;5047657;28;20226;-67
2022/12/21 08:38:48;;;;;;;18.27;14.30;;;;;;;1.26;55.32;95637.47;5033484;28;20236;-67
2022/12/21 08:41:14;;;;;;;21.23;15.20;;;;;;;1.36;55.09;95632.63;5054331;28;20233;-68
2022/12/21 08:43:40;;;;;;;24.03;15.13;;;;;;;1.45;54.60;95622.63;5040100;28;20222;-67
2022/12/21 08:46:07;;;;;;;18.43;15.73;;;;;;;1.55;54.77;95620.34;5035393;28;20225;-67
2022/12/21 08:48:33;;;;;;;22.60;16.90;;;;;;;1.65;55.06;95613.75;5040704;28;20229;-67
2022/12/21 08:50:59;;;;;;;21.23;16.33;;;;;;;1.72;54.93;95619.47;5044941;28;20238;-67
2022/12/21 08:53:26;;;;;;;18.87;14.70;;;;;;;1.64;54.71;95614.69;5045070;28;20194;-67
2022/12/21 08:55:52;;;;;;;17.33;14.27;;;;;;;1.66;54.32;95612.84;5042853;28;20283;-67
2022/12/21 08:58:18;;;;;;;22.57;16.20;;;;;;;1.73;54.33;95606.41;5040700;28;20233;-67
2022/12/21 09:00:43;;;;;;;22.17;17.07;;;;;;;1.87;54.51;95607.41;5037230;28;20234;-67
2022/12/21 09:03:10;;;;;;;26.57;19.57;;;;;;;1.89;54.66;95608.16;5036508;28;20227;-67
2022/12/21 09:05:36;;;;;;;27.53;20.50;;;;;;;1.97;54.43;95593.00;5048074;28;20197;-66
2022/12/21 09:08:03;;;;;;;29.43;20.10;;;;;;;2.06;54.51;95594.25;5043901;28;20186;-67
2022/12/21 09:10:29;;;;;;;26.43;20.10;;;;;;;2.08;54.05;95598.41;5044474;28;20238;-67
2022/12/21 09:12:55;;;;;;;26.90;18.77;;;;;;;2.17;53.60;95587.53;5040649;28;20305;-67
2022/12/21 09:15:21;;;;;;;24.33;19.83;;;;;;;2.24;53.43;95593.22;5050365;28;20279;-67
2022/12/21 09:17:47;;;;;;;21.90;17.90;;;;;;;2.32;53.43;95588.41;5041077;28;20225;-67
2022/12/21 09:20:13;;;;;;;26.43;19.77;;;;;;;2.42;52.81;95575.75;5044193;28;20233;-67
2022/12/21 09:22:39;;;;;;;27.20;19.87;;;;;;;2.65;52.64;95580.44;5044673;28;20225;-67
2022/12/21 09:25:05;;;;;;;24.17;18.77;;;;;;;2.32;52.96;95577.19;5043030;28;20260;-67
2022/12/21 09:27:30;;;;;;;25.57;18.80;;;;;;;2.15;53.81;95568.63;5039017;28;20229;-66
2022/12/21 09:29:56;;;;;;;22.93;15.07;;;;;;;2.27;52.33;95559.28;5041716;28;20290;-66
2022/12/21 09:32:21;;;;;;;21.47;16.67;;;;;;;2.32;51.71;95557.28;5046158;28;20208;-66
2022/12/21 09:34:47;;;;;;;20.77;15.83;;;;;;;2.43;51.63;95544.53;5040092;28;20206;-67
2022/12/21 09:37:12;;;;;;;19.60;15.73;;;;;;;2.35;52.01;95538.94;5042278;28;20233;-67
2022/12/21 09:39:38;;;;;;;22.33;16.20;;;;;;;2.51;51.46;95536.28;5041457;28;20221;-67
2022/12/21 09:42:15;;;;;;;23.00;16.43;;;;;;;2.63;51.08;95535.56;5038918;28;20245;-66
2022/12/21 09:45:02;;;;;;;18.67;15.83;;;;;;;2.81;50.84;95532.81;5029257;28;20234;-66
2022/12/21 09:47:37;;;;;;;26.47;16.80;;;;;;;2.93;50.92;95528.63;5028720;28;20174;-66
2022/12/21 09:50:07;;;;;;;23.97;16.93;;;;;;;2.92;50.85;95526.97;5019451;28;20186;-67
2022/12/21 09:52:45;;;;;;;26.63;16.93;;;;;;;3.03;50.99;95521.94;5017237;28;20246;-66
2022/12/21 09:55:18;;;;;;;24.10;16.90;;;;;;;2.93;50.49;95524.25;5020197;28;20229;-66
2022/12/21 09:57:44;;;;;;;23.50;16.43;;;;;;;2.91;50.74;95520.09;5031007;28;20226;-67
2022/12/21 10:00:17;;;;;;;22.80;15.93;;;;;;;3.02;50.73;95517.66;5033658;28;20244;-66
2022/12/21 10:03:10;;;;;;;24.93;15.20;;;;;;;3.31;49.99;95513.28;5048167;28;20214;-66
2022/12/21 10:06:19;;;;;;;19.43;17.40;;;;;;;3.15;50.25;95507.34;5040899;28;20183;-66
2022/12/21 10:09:19;;;;;;;25.80;16.80;;;;;;;3.37;50.40;95499.91;5041997;28;20310;-66
2022/12/21 10:12:06;;;;;;;23.63;17.43;;;;;;;3.54;50.01;95498.84;5006133;28;20251;-66
2022/12/21 10:14:51;;;;;;;26.47;17.33;;;;;;;3.59;49.92;95488.97;5012855;28;20182;-66
2022/12/21 10:17:26;;;;;;;24.57;17.60;;;;;;;3.74;49.76;95474.16;5012576;28;20195;-66
2022/12/21 10:20:21;;;;;;;22.83;16.90;;;;;;;3.83;49.48;95470.13;4993491;28;20222;-67
2022/12/21 10:22:50;;;;;;;21.30;15.30;;;;;;;3.82;49.24;95468.47;5049379;28;20326;-66
2022/12/21 10:25:21;;;;;;;27.10;16.10;;;;;;;3.83;48.83;95457.97;5034695;28;20256;-66
2022/12/21 10:28:42;;;;;;;20.67;15.70;;;;;;;3.98;49.08;95458.72;5030832;28;20225;-66
2022/12/21 10:31:10;;;;;;;27.37;17.20;;;;;;;3.71;49.56;95446.56;4968408;28;20251;-65
2022/12/21 10:33:41;;;;;;;22.50;16.90;;;;;;;3.69;49.52;95445.84;4975414;28;20229;-66
2022/12/21 10:36:15;;;;;;;24.93;17.10;;;;;;;3.86;49.25;95447.34;4969262;28;20219;-65
2022/12/21 10:38:40;;;;;;;24.33;17.53;;;;;;;4.11;48.58;95440.53;4981531;28;20227;-65
2022/12/21 10:41:23;;;;;;;29.07;18.20;;;;;;;4.12;48.07;95437.00;4976292;28;20246;-65
2022/12/21 10:43:50;;;;;;;27.80;17.87;;;;;;;3.82;49.58;95443.28;4989951;28;20219;-66
2022/12/21 10:46:18;;;;;;;25.17;18.70;;;;;;;3.90;49.15;95435.81;4973427;28;20234;-66
2022/12/21 10:48:47;;;;;;;30.23;19.43;;;;;;;4.24;48.70;95435.34;4971542;28;20306;-67
2022/12/21 10:51:32;;;;;;;27.80;19.23;;;;;;;4.08;48.60;95428.56;4958103;28;20241;-66
2022/12/21 10:54:01;;;;;;;27.10;19.13;;;;;;;4.21;48.23;95428.56;4963162;28;20340;-66
2022/12/21 10:56:27;;;;;;;30.83;19.27;;;;;;;4.35;48.04;95433.66;4966701;28;20200;-65
2022/12/21 10:58:53;;;;;;;36.63;25.60;;;;;;;4.42;47.88;95421.91;4944057;28;20296;-66
2022/12/21 11:01:27;;;;;;;22.97;17.40;;;;;;;4.48;47.43;95419.84;4976635;28;20247;-67
2022/12/21 11:04:31;;;;;;;26.87;16.90;;;;;;;4.69;46.70;95425.34;4995482;28;20216;-66
2022/12/21 11:07:04;;;;;;;25.17;16.53;;;;;;;4.69;46.79;95415.75;5038599;28;20228;-66
2022/12/21 11:09:33;;;;;;;23.30;16.83;;;;;;;4.82;46.40;95408.75;5049101;28;20320;-66
2022/12/21 11:12:19;;;;;;;28.03;21.27;;;;;;;4.79;46.88;95398.53;5046556;28;20255;-66
2022/12/21 11:14:45;;;;;;;22.63;17.00;;;;;;;4.97;46.66;95406.00;5047601;28;20217;-66
2022/12/21 11:17:20;;;;;;;25.67;17.57;;;;;;;5.03;46.51;95392.56;5035586;28;20178;-66
2022/12/21 11:19:47;;;;;;;22.43;16.77;;;;;;;5.56;44.91;95382.66;5046404;28;20214;-66
2022/12/21 11:22:15;;;;;;;25.50;17.07;;;;;;;5.53;45.11;95381.09;5028619;28;20229;-66
2022/12/21 11:24:44;;;;;;;23.73;16.80;;;;;;;6.20;43.94;95390.09;5040307;28;20226;-66
2022/12/21 11:27:33;;;;;;;23.80;16.77;;;;;;;6.52;43.19;95374.59;5030561;28;20214;-66
2022/12/21 11:30:01;;;;;;;21.27;15.83;;;;;;;6.48;42.49;95373.16;5017439;28;20313;-66
2022/12/21 11:32:28;;;;;;;21.33;16.20;;;;;;;6.45;43.09;95376.00;5035466;28;20248;-66
2022/12/21 11:35:06;;;;;;;19.93;15.87;;;;;;;6.41;42.54;95369.34;5015851;28;20179;-66
2022/12/21 11:37:44;;;;;;;20.03;14.60;;;;;;;6.27;43.39;95367.78;5058316;28;20243;-66
2022/12/21 11:40:20;;;;;;;18.83;14.03;;;;;;;6.01;42.77;95366.31;5040807;28;20248;-66
2022/12/21 11:43:15;;;;;;;19.03;14.83;;;;;;;5.92;43.17;95359.97;5041195;28;20297;-66
2022/12/21 11:46:08;;;;;;;21.43;16.50;;;;;;;5.69;43.57;95357.31;5026592;28;20241;-66
2022/12/21 11:48:57;;;;;;;20.23;15.37;;;;;;;5.79;43.03;95346.19;5038033;28;20222;-66
2022/12/21 11:51:43;;;;;;;22.60;17.20;;;;;;;6.11;42.90;95352.44;5026606;28;20214;-66